Time,TemperatureF,DewpointF,PressureIn,WindDirection,WindDirectionDegrees,WindSpeedMPH,WindSpeedGustMPH,Humidity,HourlyPrecipIn,Conditions,Clouds,dailyrainin,SolarRadiationWatts/m^2,SoftwareType,DateUTC
2013-03-21 00:00:00,19.5,15.5,29.84,West,276,0.0,0.0,84,0.00,FEW,OVC,0.01,0.0,WeatherDisplay:10.37,2013-03-21 04:00:00,
2013-03-21 00:05:00,19.7,15.9,29.85,West,276,0.0,0.0,85,0.00,RA,OVC,0.00,0.0,WeatherDisplay:10.37,2013-03-21 04:05:00,
2013-03-21 00:10:00,19.8,15.7,29.84,West,276,0.0,2.3,84,0.00,RA,OVC,0.00,0.0,WeatherDisplay:10.37,2013-03-21 04:10:00,
2013-03-21 00:15:00,19.6,15.6,29.85,West,276,0.0,0.0,84,0.00,FEW,OVC,0.00,0.0,WeatherDisplay:10.37,2013-03-21 04:15:00,
2013-03-21 00:20:00,19.6,15.6,29.84,West,276,0.0,2.3,84,0.00,SCT,OVC,0.00,0.0,WeatherDisplay:10.37,2013-03-21 04:20:00,
2013-03-21 00:25:00,20.0,16.2,29.84,West,276,0.5,1.2,85,0.00,SCT,OVC,0.00,0.0,WeatherDisplay:10.37,2013-03-21 04:25:00,
2013-03-21 00:30:00,20.4,16.3,29.84,West,276,0.0,1.2,84,0.00,SCT,OVC,0.00,0.0,WeatherDisplay:10.37,2013-03-21 04:30:00,
2013-03-21 00:35:00,20.5,16.2,29.84,West,276,0.0,1.2,83,0.00,SCT,OVC,0.00,0.0,WeatherDisplay:10.37,2013-03-21 04:35:00,
2013-03-21 00:40:00,20.2,15.9,29.84,West,276,0.0,0.0,83,0.00,SCT,OVC,0.00,0.0,WeatherDisplay:10.37,2013-03-21 04:40:00,
2013-03-21 00:45:00,20.2,15.9,29.84,West,276,1.2,2.3,83,0.00,SCT,OVC,0.00,0.0,WeatherDisplay:10.37,2013-03-21 04:45:00,
2013-03-21 00:50:00,20.4,16.1,29.84,West,276,0.0,1.2,83,0.00,SCT,OVC,0.00,0.0,WeatherDisplay:10.37,2013-03-21 04:50:00,
2013-03-21 00:55:00,20.4,16.1,29.84,West,276,0.8,2.3,83,0.00,SCT,OVC,0.00,0.0,WeatherDisplay:10.37,2013-03-21 04:55:00,
2013-03-21 01:00:00,20.4,15.8,29.84,West,276,1.0,2.3,82,0.00,SCT,OVC,0.00,0.0,WeatherDisplay:10.37,2013-03-21 05:00:00,
2013-03-21 01:05:00,20.3,15.7,29.83,West,276,1.4,2.3,82,0.00,SCT,OVC,0.00,0.0,WeatherDisplay:10.37,2013-03-21 05:05:00,
2013-03-21 01:10:00,20.6,15.7,29.83,West,276,2.1,4.0,81,0.00,SCT,OVC,0.00,0.0,WeatherDisplay:10.37,2013-03-21 05:10:00,
2013-03-21 01:15:00,20.9,15.7,29.83,West,276,2.8,5.0,80,0.00,SCT,OVC,0.00,0.0,WeatherDisplay:10.37,2013-03-21 05:15:00,
2013-03-21 01:20:00,21.2,15.4,29.83,West,276,2.3,4.0,78,0.00,SCT,OVC,0.00,0.0,WeatherDisplay:10.37,2013-03-21 05:20:00,
2013-03-21 01:25:00,21.3,14.9,29.83,West,276,1.4,3.5,76,0.00,SCT,OVC,0.00,0.0,WeatherDisplay:10.37,2013-03-21 05:25:00,
2013-03-21 01:30:00,21.2,14.5,29.83,West,275,2.1,3.5,75,0.00,SCT,OVC,0.00,0.0,WeatherDisplay:10.37,2013-03-21 05:30:00,
2013-03-21 01:35:00,21.2,14.2,29.83,West,275,1.4,3.5,74,0.00,SCT,OVC,0.00,0.0,WeatherDisplay:10.37,2013-03-21 05:35:00,
2013-03-21 01:40:00,21.1,13.8,29.83,West,275,2.2,4.0,73,0.00,SCT,OVC,0.00,0.0,WeatherDisplay:10.37,2013-03-21 05:40:00,
2013-03-21 01:45:00,20.9,13.6,29.83,West,275,1.6,3.5,73,0.00,SCT,OVC,0.00,0.0,WeatherDisplay:10.37,2013-03-21 05:45:00,
2013-03-21 01:50:00,20.7,13.4,29.83,West,275,0.6,2.0,73,0.00,SCT,OVC,0.00,0.0,WeatherDisplay:10.37,2013-03-21 05:50:00,
2013-03-21 01:55:00,20.5,13.2,29.83,West,275,2.6,4.0,73,0.00,SCT,OVC,0.00,0.0,WeatherDisplay:10.37,2013-03-21 05:55:00,
2013-03-21 02:00:00,20.5,13.2,29.83,West,275,1.5,3.5,73,0.00,SCT,OVC,0.00,0.0,WeatherDisplay:10.37,2013-03-21 06:00:00,
2013-03-21 02:05:00,20.5,13.2,29.83,West,275,1.1,2.3,73,0.00,SCT,OVC,0.00,0.0,WeatherDisplay:10.37,2013-03-21 06:05:00,
2013-03-21 02:10:00,20.4,13.4,29.83,West,275,0.0,0.0,74,0.00,SCT,OVC,0.00,0.0,WeatherDisplay:10.37,2013-03-21 06:10:00,
2013-03-21 02:15:00,20.3,13.3,29.83,West,275,0.1,2.0,74,0.00,SCT,OVC,0.00,0.0,WeatherDisplay:10.37,2013-03-21 06:15:00,
2013-03-21 02:20:00,20.3,13.3,29.83,West,275,0.0,1.2,74,0.00,SCT,OVC,0.00,0.0,WeatherDisplay:10.37,2013-03-21 06:20:00,
2013-03-21 02:25:00,20.1,13.1,29.83,West,275,0.8,3.5,74,0.00,SCT,OVC,0.00,0.0,WeatherDisplay:10.37,2013-03-21 06:25:00,
2013-03-21 02:30:00,20.0,13.3,29.83,West,275,0.0,0.0,75,0.00,SCT,OVC,0.00,0.0,WeatherDisplay:10.37,2013-03-21 06:30:00,
2013-03-21 02:35:00,20.0,13.3,29.82,West,275,0.3,2.3,75,0.00,SCT,OVC,0.00,0.0,WeatherDisplay:10.37,2013-03-21 06:35:00,
2013-03-21 02:40:00,20.0,13.3,29.82,West,275,0.1,2.3,75,0.00,SCT,OVC,0.00,0.0,WeatherDisplay:10.37,2013-03-21 06:40:00,
2013-03-21 02:45:00,20.1,13.4,29.82,West,275,1.3,2.3,75,0.00,SCT,OVC,0.00,0.0,WeatherDisplay:10.37,2013-03-21 06:45:00,
2013-03-21 02:50:00,20.4,13.7,29.82,West,275,1.9,3.5,75,0.00,SCT,OVC,0.00,0.0,WeatherDisplay:10.37,2013-03-21 06:50:00,
2013-03-21 02:55:00,20.6,13.9,29.82,West,275,2.1,3.5,75,0.00,SCT,OVC,0.00,0.0,WeatherDisplay:10.37,2013-03-21 06:55:00,
2013-03-21 03:00:00,21.1,14.4,29.82,West,275,3.2,5.0,75,0.00,SCT,OVC,0.00,0.0,WeatherDisplay:10.37,2013-03-21 07:00:00,
2013-03-21 03:05:00,21.5,14.8,29.82,West,274,2.3,5.8,75,0.00,BKN,OVC,0.00,0.0,WeatherDisplay:10.37,2013-03-21 07:05:00,
2013-03-21 03:10:00,22.0,15.0,29.82,West,270,2.9,6.0,74,0.00,BKN,OVC,0.00,0.0,WeatherDisplay:10.37,2013-03-21 07:10:00,
2013-03-21 03:16:00,22.2,15.2,29.82,West,269,3.4,5.0,74,0.00,BKN,OVC,0.00,0.0,WeatherDisplay:10.37,2013-03-21 07:16:00,
2013-03-21 03:20:00,22.3,15.0,29.82,West,266,4.5,8.0,73,0.00,BKN,OVC,0.00,0.0,WeatherDisplay:10.37,2013-03-21 07:20:00,
2013-03-21 03:26:00,22.3,15.0,29.81,West,264,2.4,5.0,73,0.00,BKN,OVC,0.00,0.0,WeatherDisplay:10.37,2013-03-21 07:26:00,
2013-03-21 03:31:00,22.2,15.2,29.81,West,265,3.0,6.9,74,0.00,BKN,OVC,0.00,0.0,WeatherDisplay:10.37,2013-03-21 07:31:00,
2013-03-21 03:36:00,22.1,15.1,29.81,West,264,2.1,7.0,74,0.00,BKN,OVC,0.00,0.0,WeatherDisplay:10.37,2013-03-21 07:36:00,
2013-03-21 03:41:00,22.0,15.0,29.81,West,265,2.8,5.0,74,0.00,BKN,OVC,0.00,0.0,WeatherDisplay:10.37,2013-03-21 07:41:00,
2013-03-21 03:46:00,21.8,14.8,29.81,West,271,2.2,4.0,74,0.00,BKN,OVC,0.00,0.0,WeatherDisplay:10.37,2013-03-21 07:46:00,
2013-03-21 03:51:00,21.7,14.7,29.81,West,272,1.5,4.0,74,0.00,BKN,OVC,0.00,0.0,WeatherDisplay:10.37,2013-03-21 07:51:00,
2013-03-21 03:56:00,21.8,15.1,29.81,West,271,1.9,4.0,75,0.00,BKN,OVC,0.00,0.0,WeatherDisplay:10.37,2013-03-21 07:56:00,
2013-03-21 04:01:00,21.8,15.1,29.80,West,271,1.8,3.5,75,0.00,BKN,OVC,0.00,0.0,WeatherDisplay:10.37,2013-03-21 08:01:00,
2013-03-21 04:06:00,21.7,15.0,29.80,West,271,0.0,1.2,75,0.00,BKN,OVC,0.00,0.0,WeatherDisplay:10.37,2013-03-21 08:06:00,
2013-03-21 04:11:00,21.7,15.0,29.80,West,271,1.8,4.0,75,0.00,BKN,OVC,0.00,0.0,WeatherDisplay:10.37,2013-03-21 08:11:00,
2013-03-21 04:16:00,21.7,15.0,29.80,West,271,2.4,4.0,75,0.00,BKN,OVC,0.00,0.0,WeatherDisplay:10.37,2013-03-21 08:16:00,
2013-03-21 04:21:00,21.7,15.0,29.80,West,271,1.8,4.0,75,0.00,SCT,OVC,0.00,0.0,WeatherDisplay:10.37,2013-03-21 08:21:00,
2013-03-21 04:26:00,21.6,14.9,29.80,West,271,1.5,4.0,75,0.00,SCT,OVC,0.00,0.0,WeatherDisplay:10.37,2013-03-21 08:26:00,
2013-03-21 04:31:00,21.5,14.5,29.80,West,271,1.5,4.0,74,0.00,SCT,OVC,0.00,0.0,WeatherDisplay:10.37,2013-03-21 08:31:00,
2013-03-21 04:36:00,21.5,14.5,29.80,West,271,2.8,5.0,74,0.00,SCT,OVC,0.00,0.0,WeatherDisplay:10.37,2013-03-21 08:36:00,
2013-03-21 04:42:00,21.4,14.7,29.79,West,269,4.2,8.0,75,0.00,SCT,OVC,0.00,0.0,WeatherDisplay:10.37,2013-03-21 08:42:00,
2013-03-21 04:47:00,21.2,14.5,29.79,West,268,2.8,5.8,75,0.00,SCT,OVC,0.00,0.0,WeatherDisplay:10.37,2013-03-21 08:47:00,
2013-03-21 04:52:00,20.9,14.2,29.79,West,268,3.0,4.0,75,0.00,SCT,OVC,0.00,0.0,WeatherDisplay:10.37,2013-03-21 08:52:00,
2013-03-21 04:57:00,20.7,14.3,29.79,West,268,1.9,4.0,76,0.00,SCT,OVC,0.00,0.0,WeatherDisplay:10.37,2013-03-21 08:57:00,
2013-03-21 05:02:00,20.3,13.9,29.79,West,268,2.0,4.0,76,0.00,SCT,OVC,0.00,0.0,WeatherDisplay:10.37,2013-03-21 09:02:00,
2013-03-21 05:07:00,19.9,13.9,29.79,West,267,3.7,6.0,77,0.00,SCT,OVC,0.00,0.0,WeatherDisplay:10.37,2013-03-21 09:07:00,
2013-03-21 05:12:00,19.9,13.9,29.79,West,267,3.7,5.0,77,0.00,SCT,OVC,0.00,0.0,WeatherDisplay:10.37,2013-03-21 09:12:00,
2013-03-21 05:17:00,19.8,13.8,29.79,West,267,3.7,6.0,77,0.00,SCT,OVC,0.00,0.0,WeatherDisplay:10.37,2013-03-21 09:17:00,
2013-03-21 05:22:00,19.5,13.5,29.79,West,267,1.4,3.5,77,0.00,SCT,OVC,0.00,0.0,WeatherDisplay:10.37,2013-03-21 09:22:00,
2013-03-21 05:27:00,19.2,13.2,29.79,West,267,0.4,3.5,77,0.00,SCT,OVC,0.00,0.0,WeatherDisplay:10.37,2013-03-21 09:27:00,
2013-03-21 05:32:00,18.9,13.2,29.79,West,267,1.8,3.5,78,0.00,SCT,OVC,0.00,0.0,WeatherDisplay:10.37,2013-03-21 09:32:00,
2013-03-21 05:37:00,18.7,13.0,29.79,West,267,0.3,3.5,78,0.00,SCT,OVC,0.00,0.0,WeatherDisplay:10.37,2013-03-21 09:37:00,
2013-03-21 05:42:00,18.5,13.1,29.79,West,267,2.0,4.0,79,0.00,SCT,OVC,0.00,0.0,WeatherDisplay:10.37,2013-03-21 09:42:00,
2013-03-21 05:47:00,18.7,13.3,29.79,West,267,2.2,4.0,79,0.00,SCT,OVC,0.00,0.0,WeatherDisplay:10.37,2013-03-21 09:47:00,
2013-03-21 05:52:00,18.6,13.2,29.79,West,267,0.0,1.2,79,0.00,SCT,OVC,0.00,0.0,WeatherDisplay:10.37,2013-03-21 09:52:00,
2013-03-21 05:57:00,18.3,12.9,29.80,West,267,0.0,0.0,79,0.00,SCT,OVC,0.00,0.0,WeatherDisplay:10.37,2013-03-21 09:57:00,
2013-03-21 06:02:00,18.0,12.9,29.79,West,267,0.0,0.0,80,0.00,SCT,OVC,0.00,0.0,WeatherDisplay:10.37,2013-03-21 10:02:00,
2013-03-21 06:07:00,17.8,12.7,29.79,West,267,0.0,1.2,80,0.00,SCT,OVC,0.00,0.0,WeatherDisplay:10.37,2013-03-21 10:07:00,
2013-03-21 06:12:00,17.4,12.3,29.79,West,267,0.0,0.0,80,0.00,SCT,OVC,0.00,0.0,WeatherDisplay:10.37,2013-03-21 10:12:00,
2013-03-21 06:17:00,16.8,12.0,29.79,West,267,0.0,0.0,81,0.00,SCT,OVC,0.00,0.0,WeatherDisplay:10.37,2013-03-21 10:17:00,
2013-03-21 06:22:00,16.6,12.1,29.80,West,267,0.0,1.2,82,0.00,SCT,OVC,0.00,0.0,WeatherDisplay:10.37,2013-03-21 10:22:00,
2013-03-21 06:27:00,16.5,12.0,29.80,West,267,0.0,0.0,82,0.00,SCT,OVC,0.00,0.0,WeatherDisplay:10.37,2013-03-21 10:27:00,
2013-03-21 06:32:00,16.2,11.9,29.80,West,267,0.0,0.0,83,0.00,SCT,OVC,0.00,0.0,WeatherDisplay:10.37,2013-03-21 10:32:00,
2013-03-21 06:37:00,16.0,11.7,29.79,West,267,0.0,0.0,83,0.00,SCT,OVC,0.00,0.0,WeatherDisplay:10.37,2013-03-21 10:37:00,
2013-03-21 06:42:00,15.5,11.3,29.79,West,267,0.0,0.0,83,0.00,SCT,OVC,0.00,0.0,WeatherDisplay:10.37,2013-03-21 10:42:00,
2013-03-21 06:47:00,15.3,11.3,29.79,West,267,0.0,0.0,84,0.00,SCT,OVC,0.00,0.0,WeatherDisplay:10.37,2013-03-21 10:47:00,
2013-03-21 06:52:00,15.1,11.1,29.79,West,267,0.0,0.0,84,0.00,SCT,OVC,0.00,0.0,WeatherDisplay:10.37,2013-03-21 10:52:00,
2013-03-21 06:57:00,15.1,11.1,29.79,West,267,0.0,0.0,84,0.00,SCT,OVC,0.00,0.0,WeatherDisplay:10.37,2013-03-21 10:57:00,
2013-03-21 07:02:00,15.2,11.5,29.79,West,267,0.0,0.0,85,0.00,SCT,OVC,0.00,0.0,WeatherDisplay:10.37,2013-03-21 11:02:00,
2013-03-21 07:07:00,15.3,11.6,29.78,West,267,0.0,0.0,85,0.00,SCT,OVC,0.00,0.0,WeatherDisplay:10.37,2013-03-21 11:07:00,
2013-03-21 07:12:00,15.4,11.7,29.79,West,267,0.4,1.2,85,0.00,SCT,OVC,0.00,0.0,WeatherDisplay:10.37,2013-03-21 11:12:00,
2013-03-21 07:17:00,15.5,12.1,29.78,West,267,0.5,2.3,86,0.00,SCT,OVC,0.00,0.0,WeatherDisplay:10.37,2013-03-21 11:17:00,
2013-03-21 07:22:00,15.7,12.3,29.78,West,267,0.0,0.0,86,0.00,SCT,OVC,0.00,0.0,WeatherDisplay:10.37,2013-03-21 11:22:00,
2013-03-21 07:28:00,15.9,12.5,29.78,West,267,0.0,0.0,86,0.00,SCT,OVC,0.00,0.0,WeatherDisplay:10.37,2013-03-21 11:28:00,
2013-03-21 07:33:00,16.2,12.7,29.78,West,267,0.0,0.0,86,0.00,SCT,OVC,0.00,9.0,WeatherDisplay:10.37,2013-03-21 11:33:00,
2013-03-21 07:38:00,16.4,12.9,29.79,West,267,0.0,1.2,86,0.00,SCT,OVC,0.00,14.0,WeatherDisplay:10.37,2013-03-21 11:38:00,
2013-03-21 07:43:00,16.3,12.8,29.79,West,267,0.0,0.0,86,0.00,SCT,OVC,0.00,18.0,WeatherDisplay:10.37,2013-03-21 11:43:00,
2013-03-21 07:48:00,16.2,12.7,29.79,West,267,0.0,1.2,86,0.00,SCT,OVC,0.00,35.0,WeatherDisplay:10.37,2013-03-21 11:48:00,
2013-03-21 07:53:00,16.1,12.7,29.79,West,267,0.0,0.0,86,0.00,SCT,OVC,0.00,58.0,WeatherDisplay:10.37,2013-03-21 11:53:00,
2013-03-21 07:58:00,16.8,13.3,29.78,West,267,0.0,0.0,86,0.00,SCT,OVC,0.00,54.0,WeatherDisplay:10.37,2013-03-21 11:58:00,
2013-03-21 08:03:00,17.4,13.9,29.78,West,267,0.0,0.0,86,0.00,SCT,OVC,0.00,25.0,WeatherDisplay:10.37,2013-03-21 12:03:00,
2013-03-21 08:08:00,17.7,14.2,29.78,West,267,0.0,1.2,86,0.00,SCT,OVC,0.00,28.0,WeatherDisplay:10.37,2013-03-21 12:08:00,
2013-03-21 08:13:00,18.6,15.1,29.78,West,261,6.3,12.7,86,0.00,SCT,OVC,0.00,42.0,WeatherDisplay:10.37,2013-03-21 12:13:00,
2013-03-21 08:18:00,20.4,16.1,29.78,WSW,254,6.2,12.7,83,0.00,SCT,OVC,0.00,56.0,WeatherDisplay:10.37,2013-03-21 12:18:00,
2013-03-21 08:23:00,21.6,16.1,29.78,West,259,3.8,6.9,79,0.00,-SN,OVC,0.00,53.0,WeatherDisplay:10.37,2013-03-21 12:23:00,
2013-03-21 08:28:00,22.2,15.5,29.78,West,267,4.2,6.9,75,0.00,-SN,OVC,0.00,74.0,WeatherDisplay:10.37,2013-03-21 12:28:00,
2013-03-21 08:33:00,22.5,15.1,29.78,WSW,254,4.4,10.4,73,0.00,-SN,OVC,0.00,79.0,WeatherDisplay:10.37,2013-03-21 12:33:00,
2013-03-21 08:38:00,22.7,15.0,29.78,WSW,252,7.1,10.4,72,0.00,-SN,OVC,0.00,200.0,WeatherDisplay:10.37,2013-03-21 12:38:00,
2013-03-21 08:43:00,22.9,14.6,29.78,SW,225,9.4,14.0,70,0.00,-SN,OVC,0.00,130.0,WeatherDisplay:10.37,2013-03-21 12:43:00,
2013-03-21 08:48:00,23.0,14.3,29.78,WSW,247,11.5,16.1,69,0.00,-SN,OVC,0.00,77.0,WeatherDisplay:10.37,2013-03-21 12:48:00,
2013-03-21 08:53:00,22.9,14.2,29.78,WSW,253,9.6,13.0,69,0.00,-SN,OVC,0.00,116.0,WeatherDisplay:10.37,2013-03-21 12:53:00,
2013-03-21 08:58:00,22.7,14.4,29.78,West,266,3.6,9.2,70,0.00,-SN,OVC,0.00,81.0,WeatherDisplay:10.37,2013-03-21 12:58:00,
2013-03-21 09:03:00,22.7,14.7,29.78,WSW,252,6.5,13.0,71,0.00,-SN,OVC,0.00,130.0,WeatherDisplay:10.37,2013-03-21 13:03:00,
2013-03-21 09:08:00,22.7,14.4,29.78,WSW,255,6.5,12.7,70,0.00,-SN,OVC,0.00,211.0,WeatherDisplay:10.37,2013-03-21 13:08:00,
2013-03-21 09:13:00,22.9,14.2,29.78,WSW,257,9.0,16.1,69,0.00,-SN,OVC,0.00,121.0,WeatherDisplay:10.37,2013-03-21 13:13:00,
2013-03-21 09:18:00,23.0,14.0,29.78,West,261,13.2,17.0,68,0.00,-SN,OVC,0.00,144.0,WeatherDisplay:10.37,2013-03-21 13:18:00,
2013-03-21 09:23:00,23.0,14.0,29.78,WSW,257,5.0,11.5,68,0.00,-SN,OVC,0.00,151.0,WeatherDisplay:10.37,2013-03-21 13:23:00,
2013-03-21 09:28:00,23.3,13.6,29.78,WSW,251,6.2,10.4,66,0.00,-SN,OVC,0.00,237.0,WeatherDisplay:10.37,2013-03-21 13:28:00,
2013-03-21 09:33:00,23.5,13.5,29.78,West,263,8.5,13.8,65,0.00,-SN,OVC,0.00,167.0,WeatherDisplay:10.37,2013-03-21 13:33:00,
2013-03-21 09:38:00,23.3,13.3,29.78,West,265,8.0,12.7,65,0.00,-SN,OVC,0.00,153.0,WeatherDisplay:10.37,2013-03-21 13:38:00,
2013-03-21 09:43:00,23.3,13.3,29.78,WSW,254,9.1,17.3,65,0.00,-SN,OVC,0.00,195.0,WeatherDisplay:10.37,2013-03-21 13:43:00,
2013-03-21 09:48:00,23.4,13.7,29.78,West,260,9.5,15.0,66,0.00,-SN,OVC,0.00,162.0,WeatherDisplay:10.37,2013-03-21 13:48:00,
2013-03-21 09:53:00,23.4,13.7,29.78,WSW,248,10.9,16.1,66,0.00,-SN,OVC,0.00,527.0,WeatherDisplay:10.37,2013-03-21 13:53:00,
2013-03-21 09:58:00,23.8,13.7,29.78,WSW,253,11.2,14.0,65,0.00,-SN,OVC,0.00,527.0,WeatherDisplay:10.37,2013-03-21 13:58:00,
2013-03-21 10:03:00,23.9,13.5,29.78,West,261,5.3,11.5,64,0.00,-SN,OVC,0.00,139.0,WeatherDisplay:10.37,2013-03-21 14:03:00,
2013-03-21 10:08:00,23.4,12.6,29.78,WNW,282,8.2,16.1,63,0.00,-SN,OVC,0.00,98.0,WeatherDisplay:10.37,2013-03-21 14:08:00,
2013-03-21 10:13:00,23.4,13.0,29.78,WSW,250,7.7,11.5,64,0.00,-SN,OVC,0.00,279.0,WeatherDisplay:10.37,2013-03-21 14:13:00,
2013-03-21 10:18:00,23.9,13.1,29.78,WSW,256,4.7,15.0,63,0.00,-SN,OVC,0.00,165.0,WeatherDisplay:10.37,2013-03-21 14:18:00,
2013-03-21 10:23:00,24.1,12.6,29.78,WSW,247,5.8,19.6,61,0.00,SCT,OVC,0.00,165.0,WeatherDisplay:10.37,2013-03-21 14:23:00,
2013-03-21 10:28:00,24.1,11.8,29.78,WSW,237,8.1,12.0,59,0.00,SCT,OVC,0.00,181.0,WeatherDisplay:10.37,2013-03-21 14:28:00,
2013-03-21 10:33:00,24.3,11.6,29.78,WSW,257,12.7,16.1,58,0.00,SCT,OVC,0.00,647.0,WeatherDisplay:10.37,2013-03-21 14:33:00,
2013-03-21 10:39:00,24.5,12.2,29.79,WSW,255,9.6,19.6,59,0.00,SCT,OVC,0.00,643.0,WeatherDisplay:10.37,2013-03-21 14:39:00,
2013-03-21 10:44:00,25.0,13.1,29.79,WSW,246,6.0,16.1,60,0.00,SCT,OVC,0.00,768.0,WeatherDisplay:10.37,2013-03-21 14:44:00,
2013-03-21 10:49:00,25.5,13.1,29.79,West,260,8.6,19.6,59,0.00,SCT,OVC,0.00,816.0,WeatherDisplay:10.37,2013-03-21 14:49:00,
2013-03-21 10:54:00,25.7,13.3,29.79,WNW,291,10.0,14.0,59,0.00,SCT,OVC,0.00,782.0,WeatherDisplay:10.37,2013-03-21 14:54:00,
2013-03-21 10:59:00,25.6,13.6,29.79,WSW,246,8.3,16.1,60,0.00,SCT,OVC,0.00,373.0,WeatherDisplay:10.37,2013-03-21 14:59:00,
2013-03-21 11:04:00,25.4,13.1,29.79,WSW,253,8.1,17.3,59,0.00,SCT,OVC,0.00,294.0,WeatherDisplay:10.37,2013-03-21 15:04:00,
2013-03-21 11:09:00,25.6,13.6,29.78,SW,236,10.4,19.6,60,0.00,SCT,OVC,0.00,281.0,WeatherDisplay:10.37,2013-03-21 15:09:00,
2013-03-21 11:14:00,25.5,13.9,29.79,West,259,9.1,16.0,61,0.00,SCT,OVC,0.00,835.0,WeatherDisplay:10.37,2013-03-21 15:14:00,
2013-03-21 11:19:00,25.1,12.8,29.78,WSW,255,10.7,18.0,59,0.00,SCT,OVC,0.00,274.0,WeatherDisplay:10.37,2013-03-21 15:19:00,
2013-03-21 11:24:00,24.7,12.4,29.78,West,263,12.9,18.4,59,0.00,BKN,OVC,0.00,350.0,WeatherDisplay:10.37,2013-03-21 15:24:00,
2013-03-21 11:29:00,24.7,12.8,29.78,SW,236,14.1,20.7,60,0.00,BKN,OVC,0.00,517.0,WeatherDisplay:10.37,2013-03-21 15:29:00,
2013-03-21 11:34:00,25.2,13.6,29.78,WSW,255,11.9,16.1,61,0.00,BKN,OVC,0.00,369.0,WeatherDisplay:10.37,2013-03-21 15:34:00,
2013-03-21 11:39:00,25.1,13.2,29.79,WSW,248,10.1,17.3,60,0.00,BKN,OVC,0.00,313.0,WeatherDisplay:10.37,2013-03-21 15:39:00,
2013-03-21 11:44:00,24.8,12.5,29.79,West,274,13.3,20.0,59,0.00,BKN,OVC,0.00,306.0,WeatherDisplay:10.37,2013-03-21 15:44:00,
2013-03-21 11:49:00,25.6,14.7,29.78,WSW,239,4.7,11.5,63,0.00,BKN,OVC,0.00,329.0,WeatherDisplay:10.37,2013-03-21 15:49:00,
2013-03-21 11:54:00,25.3,14.1,29.78,WSW,251,10.6,16.0,62,0.00,BKN,OVC,0.00,320.0,WeatherDisplay:10.37,2013-03-21 15:54:00,
2013-03-21 11:59:00,24.9,13.0,29.78,West,261,11.2,16.0,60,0.00,BKN,OVC,0.00,343.0,WeatherDisplay:10.37,2013-03-21 15:59:00,
2013-03-21 12:04:00,25.0,13.4,29.78,West,263,7.6,12.0,61,0.00,BKN,OVC,0.00,385.0,WeatherDisplay:10.37,2013-03-21 16:04:00,
2013-03-21 12:09:00,25.3,13.7,29.78,WSW,245,10.2,18.4,61,0.00,BKN,OVC,0.00,385.0,WeatherDisplay:10.37,2013-03-21 16:09:00,
2013-03-21 12:14:00,26.2,13.8,29.78,WSW,246,12.1,17.3,59,0.00,BKN,OVC,0.00,868.0,WeatherDisplay:10.37,2013-03-21 16:14:00,
2013-03-21 12:19:00,26.4,13.6,29.77,West,265,5.4,13.8,58,0.00,BKN,OVC,0.00,986.0,WeatherDisplay:10.37,2013-03-21 16:19:00,
2013-03-21 12:24:00,27.0,14.2,29.78,West,261,12.6,19.6,58,0.00,BKN,OVC,0.00,1032.0,WeatherDisplay:10.37,2013-03-21 16:24:00,
2013-03-21 12:29:00,26.6,13.4,29.77,WSW,254,12.3,18.4,57,0.00,BKN,OVC,0.00,413.0,WeatherDisplay:10.37,2013-03-21 16:29:00,
2013-03-21 12:34:00,26.2,13.4,29.77,WSW,252,12.4,21.9,58,0.00,BKN,OVC,0.00,341.0,WeatherDisplay:10.37,2013-03-21 16:34:00,
2013-03-21 12:39:00,26.3,14.7,29.77,West,261,6.0,16.1,61,0.00,BKN,OVC,0.00,283.0,WeatherDisplay:10.37,2013-03-21 16:39:00,
2013-03-21 12:44:00,26.2,14.6,29.77,WSW,256,12.9,18.4,61,0.00,BKN,OVC,0.00,343.0,WeatherDisplay:10.37,2013-03-21 16:44:00,
2013-03-21 12:49:00,26.3,15.8,29.77,WSW,246,15.1,20.0,64,0.00,BKN,OVC,0.00,408.0,WeatherDisplay:10.37,2013-03-21 16:49:00,
2013-03-21 12:54:00,25.9,15.4,29.77,West,259,12.2,23.0,64,0.00,BKN,OVC,0.00,387.0,WeatherDisplay:10.37,2013-03-21 16:54:00,
2013-03-21 12:59:00,26.0,15.8,29.77,WSW,242,10.1,16.1,65,0.00,BKN,OVC,0.00,492.0,WeatherDisplay:10.37,2013-03-21 16:59:00,
2013-03-21 13:04:00,26.5,16.3,29.77,West,263,11.7,18.0,65,0.00,-SN,OVC,0.00,390.0,WeatherDisplay:10.37,2013-03-21 17:04:00,
2013-03-21 13:10:00,26.4,15.9,29.77,West,271,14.4,21.9,64,0.00,-SN,OVC,0.00,582.0,WeatherDisplay:10.37,2013-03-21 17:10:00,
2013-03-21 13:15:00,26.2,16.0,29.77,WSW,256,7.0,17.3,65,0.00,-SN,OVC,0.00,501.0,WeatherDisplay:10.37,2013-03-21 17:15:00,
2013-03-21 13:20:00,26.7,17.2,29.76,West,261,10.9,18.4,67,0.00,-SN,OVC,0.00,489.0,WeatherDisplay:10.37,2013-03-21 17:20:00,
2013-03-21 13:25:00,26.3,17.2,29.77,WSW,238,15.4,20.7,68,0.00,-SN,OVC,0.00,371.0,WeatherDisplay:10.37,2013-03-21 17:25:00,
2013-03-21 13:30:00,25.9,17.8,29.77,WSW,257,10.5,17.3,71,0.00,-SN,OVC,0.00,594.0,WeatherDisplay:10.37,2013-03-21 17:30:00,
2013-03-21 13:35:00,26.1,18.6,29.76,West,271,13.1,21.0,73,0.00,-SN,OVC,0.00,415.0,WeatherDisplay:10.37,2013-03-21 17:35:00,
2013-03-21 13:40:00,25.9,18.4,29.76,WSW,253,8.9,14.0,73,0.00,-SN,OVC,0.00,506.0,WeatherDisplay:10.37,2013-03-21 17:40:00,
2013-03-21 13:45:00,26.4,19.5,29.76,West,259,11.7,21.0,75,0.00,-SN,OVC,0.00,399.0,WeatherDisplay:10.37,2013-03-21 17:45:00,
2013-03-21 13:50:00,26.4,19.2,29.76,WSW,250,10.7,19.6,74,0.00,-SN,OVC,0.00,663.0,WeatherDisplay:10.37,2013-03-21 17:50:00,
2013-03-21 13:55:00,26.1,19.3,29.76,WSW,252,14.5,20.0,75,0.00,-SN,OVC,0.00,345.0,WeatherDisplay:10.37,2013-03-21 17:55:00,
2013-03-21 14:00:00,26.0,19.8,29.76,WSW,246,6.7,12.7,77,0.00,-SN,OVC,0.00,281.0,WeatherDisplay:10.37,2013-03-21 18:00:00,
2013-03-21 14:05:00,26.1,20.2,29.76,WSW,245,10.1,16.1,78,0.00,-SN,OVC,0.00,274.0,WeatherDisplay:10.37,2013-03-21 18:05:00,
2013-03-21 14:10:00,25.8,19.6,29.76,WSW,248,14.2,20.0,77,0.00,-SN,OVC,0.00,246.0,WeatherDisplay:10.37,2013-03-21 18:10:00,
2013-03-21 14:15:00,25.5,19.6,29.76,WSW,244,8.4,21.9,78,0.00,-SN,OVC,0.00,171.0,WeatherDisplay:10.37,2013-03-21 18:15:00,
2013-03-21 14:20:00,25.5,20.2,29.76,WSW,240,8.2,12.7,80,0.00,-SN,OVC,0.00,162.0,WeatherDisplay:10.37,2013-03-21 18:20:00,
2013-03-21 14:25:00,25.4,20.4,29.76,WSW,243,8.3,12.0,81,0.00,-SN,OVC,0.00,221.0,WeatherDisplay:10.37,2013-03-21 18:25:00,
2013-03-21 14:30:00,25.8,20.8,29.75,WSW,250,11.7,17.3,81,0.00,-SN,OVC,0.00,830.0,WeatherDisplay:10.37,2013-03-21 18:30:00,
2013-03-21 14:35:00,26.4,20.8,29.75,WSW,244,9.8,19.6,79,0.00,-SN,OVC,0.00,429.0,WeatherDisplay:10.37,2013-03-21 18:35:00,
2013-03-21 14:40:00,26.7,20.8,29.75,SW,233,14.6,25.0,78,0.00,-SN,OVC,0.00,329.0,WeatherDisplay:10.37,2013-03-21 18:40:00,
2013-03-21 14:45:00,26.5,20.0,29.75,WSW,257,10.9,20.7,76,0.00,-SN,OVC,0.00,473.0,WeatherDisplay:10.37,2013-03-21 18:45:00,
2013-03-21 14:50:00,26.5,20.0,29.75,WSW,242,7.2,12.7,76,0.00,-SN,OVC,0.00,253.0,WeatherDisplay:10.37,2013-03-21 18:50:00,
2013-03-21 14:55:00,26.6,20.1,29.75,WSW,253,10.5,19.6,76,0.00,-SN,OVC,0.00,371.0,WeatherDisplay:10.37,2013-03-21 18:55:00,
2013-03-21 15:00:00,26.6,20.1,29.75,West,263,11.5,24.2,76,0.00,-SN,OVC,0.00,480.0,WeatherDisplay:10.37,2013-03-21 19:00:00,
2013-03-21 15:05:00,26.6,20.1,29.75,West,259,16.2,23.0,76,0.00,-SN,OVC,0.00,364.0,WeatherDisplay:10.37,2013-03-21 19:05:00,
2013-03-21 15:10:00,26.5,20.0,29.75,West,260,12.9,19.0,76,0.00,-SN,OVC,0.00,271.0,WeatherDisplay:10.37,2013-03-21 19:10:00,
2013-03-21 15:15:00,26.3,20.1,29.74,WSW,246,14.6,22.0,77,0.00,-SN,OVC,0.00,176.0,WeatherDisplay:10.37,2013-03-21 19:15:00,
2013-03-21 15:20:00,26.2,20.0,29.75,WSW,250,11.0,19.6,77,0.00,-SN,OVC,0.00,190.0,WeatherDisplay:10.37,2013-03-21 19:20:00,
2013-03-21 15:25:00,26.2,20.0,29.75,West,260,11.1,17.3,77,0.00,-SN,OVC,0.00,211.0,WeatherDisplay:10.37,2013-03-21 19:25:00,
2013-03-21 15:30:00,26.3,20.4,29.75,WSW,255,13.7,18.0,78,0.00,-SN,OVC,0.00,192.0,WeatherDisplay:10.37,2013-03-21 19:30:00,
2013-03-21 15:35:00,26.2,20.6,29.75,WSW,257,10.4,19.6,79,0.00,-SN,OVC,0.00,105.0,WeatherDisplay:10.37,2013-03-21 19:35:00,
2013-03-21 15:40:00,26.1,20.8,29.75,WSW,245,7.5,13.8,80,0.00,-SN,OVC,0.00,116.0,WeatherDisplay:10.37,2013-03-21 19:40:00,
2013-03-21 15:45:00,26.1,20.8,29.75,WSW,250,10.5,20.7,80,0.00,-SN,OVC,0.00,149.0,WeatherDisplay:10.37,2013-03-21 19:45:00,
2013-03-21 15:50:00,26.1,21.1,29.75,WSW,246,15.2,22.0,81,0.00,-SN,OVC,0.00,165.0,WeatherDisplay:10.37,2013-03-21 19:50:00,
2013-03-21 15:55:00,26.1,21.1,29.75,WSW,238,10.2,17.3,81,0.00,-SN,OVC,0.00,165.0,WeatherDisplay:10.37,2013-03-21 19:55:00,
2013-03-21 16:00:00,26.1,21.4,29.75,WSW,238,10.2,15.0,82,0.00,-SN,OVC,0.00,155.0,WeatherDisplay:10.37,2013-03-21 20:00:00,
2013-03-21 16:05:00,26.0,21.5,29.74,WSW,249,9.0,17.3,83,0.00,-SN,OVC,0.00,171.0,WeatherDisplay:10.37,2013-03-21 20:05:00,
2013-03-21 16:10:00,26.1,21.6,29.74,WSW,251,10.9,16.1,83,0.00,-SN,OVC,0.00,116.0,WeatherDisplay:10.37,2013-03-21 20:10:00,
2013-03-21 16:15:00,25.9,21.7,29.74,WSW,255,11.0,23.0,84,0.00,-SN,OVC,0.00,95.0,WeatherDisplay:10.37,2013-03-21 20:15:00,
2013-03-21 16:20:00,25.9,22.0,29.74,WSW,247,14.9,19.0,85,0.00,-SN,OVC,0.00,239.0,WeatherDisplay:10.37,2013-03-21 20:20:00,
2013-03-21 16:25:00,25.8,21.9,29.74,SW,229,11.8,23.0,85,0.00,-SN,OVC,0.00,213.0,WeatherDisplay:10.37,2013-03-21 20:25:00,
2013-03-21 16:30:00,25.9,22.0,29.74,WSW,251,9.8,18.4,85,0.00,-SN,OVC,0.00,179.0,WeatherDisplay:10.37,2013-03-21 20:30:00,
2013-03-21 16:35:00,26.1,22.2,29.74,WSW,252,10.3,16.1,85,0.00,-SN,OVC,0.00,93.0,WeatherDisplay:10.37,2013-03-21 20:35:00,
2013-03-21 16:40:00,26.2,22.3,29.74,WSW,248,11.1,16.1,85,0.00,-SN,OVC,0.00,111.0,WeatherDisplay:10.37,2013-03-21 20:40:00,
2013-03-21 16:45:00,26.2,22.3,29.74,WSW,247,7.0,12.7,85,0.00,-SN,OVC,0.00,105.0,WeatherDisplay:10.37,2013-03-21 20:45:00,
2013-03-21 16:50:00,26.3,22.4,29.74,WSW,248,7.2,19.6,85,0.00,-SN,OVC,0.00,113.0,WeatherDisplay:10.37,2013-03-21 20:50:00,
2013-03-21 16:55:00,26.3,22.4,29.74,WSW,245,9.7,15.0,85,0.00,-SN,OVC,0.00,93.0,WeatherDisplay:10.37,2013-03-21 20:55:00,
2013-03-21 17:00:00,26.3,22.7,29.74,WSW,250,6.1,24.2,86,0.00,-SN,OVC,0.00,58.0,WeatherDisplay:10.37,2013-03-21 21:00:00,
2013-03-21 17:05:00,26.3,22.7,29.74,WSW,253,7.3,11.5,86,0.00,-SN,OVC,0.00,100.0,WeatherDisplay:10.37,2013-03-21 21:05:00,
2013-03-21 17:10:00,26.5,23.2,29.74,WSW,244,12.4,18.4,87,0.00,-SN,OVC,0.00,172.0,WeatherDisplay:10.37,2013-03-21 21:10:00,
2013-03-21 17:15:00,26.6,23.0,29.74,West,273,12.2,18.4,86,0.00,-SN,OVC,0.00,197.0,WeatherDisplay:10.37,2013-03-21 21:15:00,
2013-03-21 17:20:00,26.9,23.5,29.74,WSW,251,11.5,18.4,87,0.00,-SN,OVC,0.00,158.0,WeatherDisplay:10.37,2013-03-21 21:20:00,
2013-03-21 17:25:00,27.0,23.4,29.74,WSW,249,6.9,11.5,86,0.00,-SN,OVC,0.00,149.0,WeatherDisplay:10.37,2013-03-21 21:25:00,
2013-03-21 17:30:00,27.1,23.5,29.74,WSW,250,9.7,21.9,86,0.00,-SN,OVC,0.00,134.0,WeatherDisplay:10.37,2013-03-21 21:30:00,
2013-03-21 17:36:00,27.1,23.5,29.74,SW,236,11.2,19.6,86,0.00,-SN,OVC,0.00,83.0,WeatherDisplay:10.37,2013-03-21 21:36:00,
2013-03-21 17:41:00,27.0,23.4,29.74,WSW,253,11.9,17.0,86,0.00,-SN,OVC,0.00,83.0,WeatherDisplay:10.37,2013-03-21 21:41:00,
2013-03-21 17:46:00,27.0,23.6,29.74,WSW,242,13.0,17.0,87,0.00,-SN,OVC,0.00,79.0,WeatherDisplay:10.37,2013-03-21 21:46:00,
2013-03-21 17:51:00,27.0,23.6,29.74,WSW,250,8.8,13.8,87,0.00,-SN,OVC,0.00,63.0,WeatherDisplay:10.37,2013-03-21 21:51:00,
2013-03-21 17:56:00,27.1,23.7,29.74,WSW,252,6.8,13.8,87,0.00,-SN,OVC,0.00,46.0,WeatherDisplay:10.37,2013-03-21 21:56:00,
2013-03-21 18:01:00,27.2,23.8,29.74,WSW,238,6.4,14.0,87,0.00,-SN,OVC,0.00,54.0,WeatherDisplay:10.37,2013-03-21 22:01:00,
2013-03-21 18:06:00,27.3,23.9,29.74,WSW,255,10.5,16.0,87,0.00,-SN,OVC,0.00,37.0,WeatherDisplay:10.37,2013-03-21 22:06:00,
2013-03-21 18:11:00,27.3,24.2,29.74,WSW,258,8.3,12.7,88,0.00,-SN,OVC,0.00,39.0,WeatherDisplay:10.37,2013-03-21 22:11:00,
2013-03-21 18:17:00,27.3,24.2,29.74,West,259,9.8,15.0,88,0.00,-SN,OVC,0.00,30.0,WeatherDisplay:10.37,2013-03-21 22:17:00,
2013-03-21 18:22:00,27.3,24.2,29.73,WSW,244,11.8,15.0,88,0.00,-SN,OVC,0.00,37.0,WeatherDisplay:10.37,2013-03-21 22:22:00,
2013-03-21 18:27:00,27.4,24.3,29.73,WSW,248,10.1,15.0,88,0.00,-SN,OVC,0.00,37.0,WeatherDisplay:10.37,2013-03-21 22:27:00,
2013-03-21 18:32:00,27.4,24.3,29.73,West,261,7.5,12.7,88,0.00,-SN,OVC,0.00,28.0,WeatherDisplay:10.37,2013-03-21 22:32:00,
2013-03-21 18:37:00,27.5,24.4,29.73,WSW,252,5.3,11.5,88,0.00,-SN,OVC,0.00,21.0,WeatherDisplay:10.37,2013-03-21 22:37:00,
2013-03-21 18:42:00,27.5,24.4,29.74,WSW,255,8.7,13.0,88,0.00,-SN,OVC,0.00,30.0,WeatherDisplay:10.37,2013-03-21 22:42:00,
2013-03-21 18:47:00,27.6,24.8,29.73,WSW,246,9.0,13.8,89,0.00,-SN,OVC,0.00,16.0,WeatherDisplay:10.37,2013-03-21 22:47:00,
2013-03-21 18:52:00,27.7,24.9,29.73,West,261,6.7,11.5,89,0.00,-SN,OVC,0.00,16.0,WeatherDisplay:10.37,2013-03-21 22:52:00,
2013-03-21 18:57:00,27.7,24.9,29.74,WSW,257,5.6,11.5,89,0.00,-SN,OVC,0.00,18.0,WeatherDisplay:10.37,2013-03-21 22:57:00,
2013-03-21 19:02:00,27.7,24.9,29.73,WSW,255,7.0,9.2,89,0.00,-SN,OVC,0.00,18.0,WeatherDisplay:10.37,2013-03-21 23:02:00,
2013-03-21 19:07:00,27.7,24.9,29.74,WSW,251,5.8,9.2,89,0.00,-SN,OVC,0.00,11.0,WeatherDisplay:10.37,2013-03-21 23:07:00,
2013-03-21 19:12:00,27.7,24.9,29.74,West,260,6.4,9.0,89,0.00,-SN,OVC,0.00,9.0,WeatherDisplay:10.37,2013-03-21 23:12:00,
2013-03-21 19:17:00,27.7,24.9,29.74,WSW,258,7.4,15.0,89,0.00,-SN,OVC,0.00,7.0,WeatherDisplay:10.37,2013-03-21 23:17:00,
2013-03-21 19:22:00,27.8,25.0,29.74,WSW,253,6.9,12.7,89,0.00,-SN,OVC,0.00,5.0,WeatherDisplay:10.37,2013-03-21 23:22:00,
2013-03-21 19:28:00,27.8,25.0,29.74,WSW,251,9.4,13.0,89,0.00,-SN,OVC,0.00,0.0,WeatherDisplay:10.37,2013-03-21 23:28:00,
2013-03-21 19:33:00,27.8,25.0,29.74,WSW,247,8.5,12.0,89,0.00,-SN,OVC,0.00,0.0,WeatherDisplay:10.37,2013-03-21 23:33:00,
2013-03-21 19:38:00,27.8,25.0,29.74,West,259,6.9,13.0,89,0.00,-SN,OVC,0.00,0.0,WeatherDisplay:10.37,2013-03-21 23:38:00,
2013-03-21 19:43:00,27.8,25.0,29.74,WSW,257,4.2,10.4,89,0.00,-SN,OVC,0.00,0.0,WeatherDisplay:10.37,2013-03-21 23:43:00,
2013-03-21 19:48:00,27.9,24.8,29.74,WSW,256,4.5,12.7,88,0.00,-SN,OVC,0.00,0.0,WeatherDisplay:10.37,2013-03-21 23:48:00,
2013-03-21 19:53:00,27.8,25.0,29.74,WSW,255,5.8,13.0,89,0.00,-SN,OVC,0.00,0.0,WeatherDisplay:10.37,2013-03-21 23:53:00,
2013-03-21 19:58:00,27.6,24.5,29.74,West,265,5.3,10.4,88,0.00,-SN,OVC,0.00,0.0,WeatherDisplay:10.37,2013-03-21 23:58:00,
2013-03-21 20:03:00,27.4,24.3,29.75,West,275,4.9,8.1,88,0.00,-SN,OVC,0.00,0.0,WeatherDisplay:10.37,2013-03-22 00:03:00,
2013-03-21 20:08:00,27.2,24.1,29.75,West,259,5.7,8.1,88,0.00,-SN,OVC,0.00,0.0,WeatherDisplay:10.37,2013-03-22 00:08:00,
2013-03-21 20:13:00,27.0,24.2,29.75,West,263,5.0,9.2,89,0.00,-SN,OVC,0.00,0.0,WeatherDisplay:10.37,2013-03-22 00:13:00,
2013-03-21 20:18:00,27.0,23.9,29.75,WSW,255,7.6,13.8,88,0.00,-SN,OVC,0.00,0.0,WeatherDisplay:10.37,2013-03-22 00:18:00,
2013-03-21 20:23:00,27.0,24.2,29.75,West,263,7.2,10.4,89,0.00,-SN,OVC,0.00,0.0,WeatherDisplay:10.37,2013-03-22 00:23:00,
2013-03-21 20:28:00,26.9,24.1,29.75,WNW,288,4.1,11.5,89,0.00,-SN,OVC,0.00,0.0,WeatherDisplay:10.37,2013-03-22 00:28:00,
2013-03-21 20:33:00,26.7,23.6,29.75,WSW,258,3.2,9.2,88,0.00,-SN,OVC,0.00,0.0,WeatherDisplay:10.37,2013-03-22 00:33:00,
2013-03-21 20:38:00,26.7,23.6,29.75,West,263,7.6,12.0,88,0.00,-SN,OVC,0.00,0.0,WeatherDisplay:10.37,2013-03-22 00:38:00,
2013-03-21 20:43:00,26.6,23.5,29.75,West,259,9.5,19.6,88,0.00,-SN,OVC,0.00,0.0,WeatherDisplay:10.37,2013-03-22 00:43:00,
2013-03-21 20:48:00,26.6,23.5,29.75,WSW,246,3.8,13.0,88,0.00,-SN,OVC,0.00,0.0,WeatherDisplay:10.37,2013-03-22 00:48:00,
2013-03-21 20:53:00,26.6,23.5,29.75,West,273,5.1,8.1,88,0.00,-SN,OVC,0.00,0.0,WeatherDisplay:10.37,2013-03-22 00:53:00,
2013-03-21 20:58:00,26.6,23.5,29.76,West,267,5.3,10.4,88,0.00,-SN,OVC,0.00,0.0,WeatherDisplay:10.37,2013-03-22 00:58:00,
2013-03-21 21:03:00,26.6,23.3,29.75,WSW,239,6.8,12.0,87,0.00,-SN,OVC,0.00,0.0,WeatherDisplay:10.37,2013-03-22 01:03:00,
2013-03-21 21:08:00,26.5,23.2,29.76,West,259,7.0,9.2,87,0.00,-SN,OVC,0.00,0.0,WeatherDisplay:10.37,2013-03-22 01:08:00,
2013-03-21 21:13:00,26.5,23.2,29.76,WSW,248,6.7,9.2,87,0.00,-SN,OVC,0.00,0.0,WeatherDisplay:10.37,2013-03-22 01:13:00,
2013-03-21 21:18:00,26.3,23.0,29.76,WSW,255,4.5,8.1,87,0.00,-SN,OVC,0.00,0.0,WeatherDisplay:10.37,2013-03-22 01:18:00,
2013-03-21 21:23:00,26.3,23.0,29.76,West,267,3.8,9.2,87,0.00,-SN,OVC,0.00,0.0,WeatherDisplay:10.37,2013-03-22 01:23:00,
2013-03-21 21:28:00,26.2,22.6,29.76,West,264,5.8,9.2,86,0.00,-SN,OVC,0.00,0.0,WeatherDisplay:10.37,2013-03-22 01:28:00,
2013-03-21 21:33:00,26.1,22.5,29.76,West,279,3.4,6.0,86,0.00,-SN,OVC,0.00,0.0,WeatherDisplay:10.37,2013-03-22 01:33:00,
2013-03-21 21:38:00,26.0,22.4,29.76,West,278,2.1,5.8,86,0.00,-SN,OVC,0.00,0.0,WeatherDisplay:10.37,2013-03-22 01:38:00,
2013-03-21 21:43:00,25.9,22.3,29.76,West,275,4.0,6.0,86,0.00,-SN,OVC,0.00,0.0,WeatherDisplay:10.37,2013-03-22 01:43:00,
2013-03-21 21:48:00,26.0,22.4,29.77,WSW,253,6.0,11.5,86,0.00,-SN,OVC,0.00,0.0,WeatherDisplay:10.37,2013-03-22 01:48:00,
2013-03-21 21:53:00,26.0,22.1,29.77,WSW,253,4.0,10.4,85,0.00,-SN,OVC,0.00,0.0,WeatherDisplay:10.37,2013-03-22 01:53:00,
2013-03-21 21:58:00,26.0,22.1,29.77,WSW,257,3.6,9.2,85,0.00,-SN,OVC,0.00,0.0,WeatherDisplay:10.37,2013-03-22 01:58:00,
2013-03-21 22:03:00,26.0,22.1,29.77,West,259,3.6,6.0,85,0.00,-SN,OVC,0.00,0.0,WeatherDisplay:10.37,2013-03-22 02:03:00,
2013-03-21 22:08:00,26.0,21.8,29.77,WSW,258,5.1,7.0,84,0.00,-SN,OVC,0.00,0.0,WeatherDisplay:10.37,2013-03-22 02:08:00,
2013-03-21 22:13:00,25.9,21.7,29.77,WSW,257,5.6,8.1,84,0.00,-SN,OVC,0.00,0.0,WeatherDisplay:10.37,2013-03-22 02:13:00,
2013-03-21 22:18:00,25.8,21.6,29.77,West,261,5.6,9.0,84,0.00,-SN,OVC,0.00,0.0,WeatherDisplay:10.37,2013-03-22 02:18:00,
2013-03-21 22:23:00,25.7,21.3,29.78,WSW,252,7.1,12.0,83,0.00,-SN,OVC,0.00,0.0,WeatherDisplay:10.37,2013-03-22 02:23:00,
2013-03-21 22:28:00,25.7,21.3,29.78,WSW,253,6.7,10.4,83,0.00,-SN,OVC,0.00,0.0,WeatherDisplay:10.37,2013-03-22 02:28:00,
2013-03-21 22:33:00,25.6,21.2,29.78,WSW,251,7.2,12.7,83,0.00,-SN,OVC,0.00,0.0,WeatherDisplay:10.37,2013-03-22 02:33:00,
2013-03-21 22:39:00,25.6,20.9,29.77,West,261,5.6,11.5,82,0.00,-SN,OVC,0.00,0.0,WeatherDisplay:10.37,2013-03-22 02:39:00,
2013-03-21 22:44:00,25.6,20.9,29.77,WSW,250,7.2,11.0,82,0.00,-SN,OVC,0.00,0.0,WeatherDisplay:10.37,2013-03-22 02:44:00,
2013-03-21 22:49:00,25.6,20.9,29.78,WSW,253,5.8,12.0,82,0.00,-SN,OVC,0.00,0.0,WeatherDisplay:10.37,2013-03-22 02:49:00,
2013-03-21 22:54:00,25.6,20.6,29.78,West,264,7.8,14.0,81,0.00,-SN,OVC,0.00,0.0,WeatherDisplay:10.37,2013-03-22 02:54:00,
2013-03-21 22:59:00,25.6,20.6,29.78,WSW,254,4.2,8.0,81,0.00,-SN,OVC,0.00,0.0,WeatherDisplay:10.37,2013-03-22 02:59:00,
2013-03-21 23:04:00,25.6,20.6,29.78,West,264,8.4,12.0,81,0.00,-SN,OVC,0.00,0.0,WeatherDisplay:10.37,2013-03-22 03:04:00,
2013-03-21 23:09:00,25.6,20.3,29.78,West,259,5.2,11.5,80,0.00,-SN,OVC,0.00,0.0,WeatherDisplay:10.37,2013-03-22 03:09:00,
2013-03-21 23:14:00,25.6,20.3,29.78,West,263,4.9,8.1,80,0.00,-SN,OVC,0.00,0.0,WeatherDisplay:10.37,2013-03-22 03:14:00,
2013-03-21 23:19:00,25.6,20.3,29.78,West,266,6.5,12.0,80,0.00,-SN,OVC,0.00,0.0,WeatherDisplay:10.37,2013-03-22 03:19:00,
2013-03-21 23:24:00,25.6,20.0,29.78,West,263,5.1,10.0,79,0.00,-SN,OVC,0.00,0.0,WeatherDisplay:10.37,2013-03-22 03:24:00,
2013-03-21 23:29:00,25.6,20.0,29.78,WSW,257,6.9,9.2,79,0.00,-SN,OVC,0.00,0.0,WeatherDisplay:10.37,2013-03-22 03:29:00,
2013-03-21 23:34:00,25.6,19.7,29.78,WSW,257,3.3,10.4,78,0.00,-SN,OVC,0.00,0.0,WeatherDisplay:10.37,2013-03-22 03:34:00,
2013-03-21 23:39:00,25.6,19.7,29.78,WSW,258,4.0,9.2,78,0.00,-SN,OVC,0.00,0.0,WeatherDisplay:10.37,2013-03-22 03:39:00,
2013-03-21 23:44:00,25.6,19.7,29.78,WSW,257,4.2,7.0,78,0.00,-SN,OVC,0.00,0.0,WeatherDisplay:10.37,2013-03-22 03:44:00,
2013-03-21 23:49:00,25.6,19.7,29.78,WSW,255,4.6,10.4,78,0.00,-SN,OVC,0.00,0.0,WeatherDisplay:10.37,2013-03-22 03:49:00,
2013-03-21 23:54:00,25.6,19.7,29.78,WSW,255,4.0,8.1,78,0.00,-SN,OVC,0.00,0.0,WeatherDisplay:10.37,2013-03-22 03:54:00,
2013-03-21 23:59:00,25.6,19.7,29.79,WSW,253,4.8,7.0,78,0.00,-SN,OVC,0.00,0.0,WeatherDisplay:10.37,2013-03-22 03:59:00,